Share

Washington, GA

8:13 AM EDT on April 23, 2014 (GMT -0400)
Washington-Wilkes County (KIIY) Elev 646 ft | 33.78 °N, 82.82 °W | Change Station

Current weather conditions updated 18 minutes ago

Clear
Clear
59 °F
Feels Like 59 °F
N
8
Wind Variable Wind from WNW
Sunrise 6:50 AM
Sunset 8:08 PM
Moon Last Quarter

Today is forecast to be nearly the same temperature as yesterday.

Pressure 29.88 in
Visibility 5.0 miles
Clouds Clear
Dew Point 59 °F
Humidity 100%
Rainfall 0.00 in
Snow Depth Not available.
UV 1 out of 16
Pollen 8.70 out of 12
Air Quality Not available.
Flu Activity Sporadic
METAR KIIY 231155Z AUTO 30007KT 5SM BR CLR 15/15 A2988 RMK AO2

More Conditions Fewer Conditions

Pressure 29.88 in
Visibility 5.0 miles
Clouds Clear
Dew Point 59 °F
Humidity 100%
Rainfall 0.00 in
Snow Depth Not available.
UV 1 out of 16
Pollen 8.70 out of 12
Air Quality Not available.
Flu Activity Sporadic
METAR KIIY 231155Z AUTO 30007KT 5SM BR CLR 15/15 A2988 RMK AO2

More Conditions Fewer Conditions

10-Day Weather Forecast

Almanac

Astronomy

Apr. 23, 2014 Rise Set
Actual Time 6:50 AM EDT 8:08 PM EDT
Civil Twilight 6:24 AM EDT 8:34 PM EDT
Nautical Twilight 5:53 AM EDT 9:05 PM EDT
Astronomical Twilight 5:21 AM EDT 9:37 PM EDT
Moon 3:04 AM EDT 2:31 PM EDT
Length of Visible Light 14h 09m
Length of Day
13h 17m
Tomorrow will be 1m 54s longer.
Last Quarter, 37% of the Moon is Illuminated
Today
Last Quarter
Apr 29
New
May 6
First Quarter
May 14
Full
May 21
Last Quarter

Today's Extremes

State Highs State Lows

Community

  • April Sunset
    April Sunset
  • Waiting..
    Waiting..
  • Sunset...
    Sunset...
  • Happy outdoor day
    Happy outdoor day
  • mystic afternoon....
    mystic afternoon....

WunderPhotos

Upload Photos

1,704,250 photos uploaded!

Nearby

Snow Depth

Station Depth Elevation
No new snow has been reported.

Coastal Water Temperatures

Place Temperature
No Stations Reporting

Earthquake Activity

City Distance Mag. Time & Date
No recent earthquake activity has been reported nearby.
Minimum magnitude displayed is 2.5.

Nearby Weather Stations

Station Location Temp. Dew Point Humidity Wind Precip. Elev Updated Type
RAWS WASHINGTON GA, Tignall, GA 58 °F 57 °F 97% WNW  at  5 mph 0.00 in / hr 616 ft 7:02 AM EDT MADIS
Deerlick Astronomy Village (BE), Sharon, GA 57.8 °F 58 °F 100% East  at  1.0 mph 0.01 in / hr 571 ft 8:08 AM EDT Rapid Fire
Deerlick Astronomy Village, Sharon, GA 60.3 °F 59 °F 97% NW  at  1.0 mph 0.00 in / hr 558 ft 8:10 AM EDT Normal
Lincoln County Board of Education, Lincolnton, GA 59.1 °F 58 °F 97% North  at  0.0 mph 0.00 in / hr 443 ft 8:13 AM EDT Rapid Fire

Show More Stations Show Fewer Stations

What do you think?

We're not finished. Please let us know what you like, what you don't like, and what you are still missing.